Time;durP1;ratioP1;P1;durP2;ratioP2;P2;SDS_P1;SDS_P2;PMS_P1;PMS_P2;Temp;Humidity;BMP_temperature;BMP_pressure;BME280_temperature;BME280_humidity;BME280_pressure;Samples;Min_cycle;Max_cycle;Signal;HPM_P1;HPM_P2
2022/05/27 00:00:35;;;;;;;6.13;1.70;;;;;;;25.87;35.68;102558.41;5105792;28;20088;-44
2022/05/27 00:03:03;;;;;;;4.90;1.60;;;;;;;25.76;36.01;102547.56;5107269;27;20361;-46
2022/05/27 00:05:32;;;;;;;4.10;1.38;;;;;;;25.76;36.10;102557.22;5107758;28;20039;-44
2022/05/27 00:08:01;;;;;;;4.55;1.60;;;;;;;25.72;35.94;102544.81;5107341;28;20438;-44
2022/05/27 00:10:29;;;;;;;3.90;1.20;;;;;;;25.82;36.05;102560.00;5106154;28;20050;-51
2022/05/27 00:12:58;;;;;;;3.85;1.55;;;;;;;25.75;36.14;102564.19;5096352;28;20035;-44
2022/05/27 00:15:27;;;;;;;3.13;1.42;;;;;;;25.70;36.13;102554.38;5106044;28;20114;-44
2022/05/27 00:17:55;;;;;;;5.25;1.50;;;;;;;25.69;36.30;102550.88;5107240;28;20080;-44
2022/05/27 00:20:23;;;;;;;5.22;1.83;;;;;;;25.70;36.04;102552.66;5107463;28;20499;-44
2022/05/27 00:22:52;;;;;;;3.72;1.25;;;;;;;25.65;36.21;102548.13;5089463;28;20024;-43
2022/05/27 00:25:21;;;;;;;3.47;1.30;;;;;;;25.61;36.29;102555.91;5107605;28;20034;-44
2022/05/27 00:27:49;;;;;;;4.00;1.33;;;;;;;25.61;36.68;102553.28;5105822;28;20401;-43
2022/05/27 00:30:18;;;;;;;5.30;1.20;;;;;;;25.59;36.42;102557.59;5106930;28;20054;-44
2022/05/27 00:32:46;;;;;;;2.95;1.30;;;;;;;25.60;36.18;102554.13;5105466;28;20274;-44
2022/05/27 00:35:17;;;;;;;3.13;1.13;;;;;;;25.62;36.11;102562.03;5106989;28;20028;-50
2022/05/27 00:37:45;;;;;;;3.88;1.38;;;;;;;25.57;36.25;102550.47;5105678;28;20589;-44
2022/05/27 00:40:14;;;;;;;3.53;1.30;;;;;;;25.57;36.37;102554.00;5106842;28;20035;-49
2022/05/27 00:42:44;;;;;;;4.65;1.90;;;;;;;25.43;36.32;102527.28;5107374;28;20031;-44
2022/05/27 00:45:18;;;;;;;5.28;1.20;;;;;;;25.57;36.46;102551.38;5107282;28;20062;-44
2022/05/27 00:47:47;;;;;;;4.28;1.42;;;;;;;25.53;36.73;102557.38;5106851;28;20035;-44
2022/05/27 00:50:18;;;;;;;3.80;1.15;;;;;;;25.59;36.53;102552.31;5106592;28;20404;-43
2022/05/27 00:52:48;;;;;;;4.40;1.52;;;;;;;25.52;36.68;102549.47;5106513;28;20404;-43
2022/05/27 00:55:24;;;;;;;3.17;1.20;;;;;;;25.40;36.97;102540.28;5105197;28;20363;-43
2022/05/27 00:57:58;;;;;;;3.58;1.05;;;;;;;25.52;36.57;102552.09;5105797;28;20384;-43
2022/05/27 01:00:27;;;;;;;4.57;1.70;;;;;;;25.52;36.51;102552.97;5106786;28;20477;-43
2022/05/27 01:02:56;;;;;;;2.20;1.02;;;;;;;25.52;36.63;102557.34;5106211;28;20649;-45
2022/05/27 01:05:25;;;;;;;2.70;1.10;;;;;;;25.48;36.80;102551.97;5106178;28;20037;-46
2022/05/27 01:07:58;;;;;;;3.60;1.25;;;;;;;25.51;36.69;102545.91;5106531;28;20024;-44
2022/05/27 01:10:27;;;;;;;2.90;1.10;;;;;;;25.44;36.75;102552.72;5104932;28;20928;-51
2022/05/27 01:13:04;;;;;;;2.78;0.90;;;;;;;25.45;36.84;102554.50;5103961;28;20230;-53
2022/05/27 01:15:51;;;;;;;6.00;1.40;;;;;;;25.50;36.66;102551.13;5105006;28;20451;-48
2022/05/27 01:18:19;;;;;;;1.88;0.90;;;;;;;25.54;36.54;102550.41;5098856;28;20031;-49
2022/05/27 01:21:07;;;;;;;3.03;1.20;;;;;;;25.51;36.21;102542.41;5106628;28;20035;-45
2022/05/27 01:23:55;;;;;;;3.33;1.00;;;;;;;25.52;36.62;102539.81;5104427;28;20043;-49
2022/05/27 01:26:28;;;;;;;3.90;1.38;;;;;;;25.47;36.72;102549.31;5102201;28;20110;-49
2022/05/27 01:29:31;;;;;;;3.45;1.17;;;;;;;25.37;37.08;102545.47;5105093;28;20039;-44
2022/05/27 01:32:02;;;;;;;3.40;0.98;;;;;;;25.43;36.59;102540.44;5101800;28;20464;-45
2022/05/27 01:34:56;;;;;;;2.88;1.17;;;;;;;25.36;36.78;102534.91;5091548;28;20153;-50
2022/05/27 01:37:34;;;;;;;5.47;1.20;;;;;;;25.43;36.61;102545.69;5102195;28;20248;-46
2022/05/27 01:40:27;;;;;;;3.67;1.10;;;;;;;25.41;36.51;102538.56;5104320;28;20027;-46
2022/05/27 01:43:02;;;;;;;2.80;1.10;;;;;;;25.43;36.59;102540.44;5102365;28;20761;-47
2022/05/27 01:45:42;;;;;;;2.42;0.80;;;;;;;25.40;36.76;102534.16;5104653;28;20032;-52
2022/05/27 01:48:32;;;;;;;4.15;1.15;;;;;;;25.41;36.82;102528.06;5104688;28;20478;-47
2022/05/27 01:51:02;;;;;;;2.45;0.80;;;;;;;25.39;36.88;102533.28;5104099;28;20032;-52
2022/05/27 01:53:41;;;;;;;2.63;0.95;;;;;;;25.37;36.78;102520.91;5105685;28;20062;-53
2022/05/27 01:56:14;;;;;;;6.20;1.40;;;;;;;25.40;36.66;102521.03;5104345;28;20063;-44
2022/05/27 01:59:00;;;;;;;2.47;0.90;;;;;;;25.38;36.68;102527.97;5105457;28;20110;-53
2022/05/27 02:01:32;;;;;;;3.40;1.05;;;;;;;25.38;37.07;102522.69;5103394;28;20061;-43
2022/05/27 02:04:09;;;;;;;2.47;0.82;;;;;;;25.34;37.08;102522.59;5103727;28;20032;-45
2022/05/27 02:06:44;;;;;;;3.17;0.98;;;;;;;25.28;37.13;102511.00;5104801;28;20066;-44
2022/05/27 02:09:36;;;;;;;3.08;1.15;;;;;;;25.32;36.91;102507.66;5105335;28;20106;-49
2022/05/27 02:12:11;;;;;;;2.53;0.80;;;;;;;25.31;37.09;102508.50;5104805;28;20032;-48
2022/05/27 02:14:43;;;;;;;3.83;1.63;;;;;;;25.33;36.94;102510.31;5103973;28;20510;-49
2022/05/27 02:17:16;;;;;;;5.60;1.05;;;;;;;25.33;36.92;102518.19;5105007;28;20045;-53
2022/05/27 02:19:54;;;;;;;3.15;0.82;;;;;;;25.39;36.82;102511.34;5103495;28;20027;-45
2022/05/27 02:22:27;;;;;;;3.17;1.25;;;;;;;25.37;36.89;102515.66;5104931;28;20027;-51
2022/05/27 02:24:58;;;;;;;5.32;1.15;;;;;;;25.37;36.77;102508.69;5103772;28;20038;-44
2022/05/27 02:27:31;;;;;;;2.58;1.20;;;;;;;25.34;36.98;102512.09;5104671;28;20035;-52
2022/05/27 02:30:03;;;;;;;3.58;1.27;;;;;;;25.35;37.06;102513.00;5105200;28;20023;-44
2022/05/27 02:35:07;;;;;;;3.17;0.95;;;;;;;25.29;36.87;102507.53;5103111;28;20027;-49
2022/05/27 02:35:40;;;;;;;4.97;1.00;;;;;;;25.33;36.69;102504.19;5103514;28;20373;-44
2022/05/27 02:38:09;;;;;;;2.92;0.90;;;;;;;25.24;37.06;102502.16;5102905;28;20039;-52
2022/05/27 02:41:03;;;;;;;3.13;0.88;;;;;;;25.30;36.89;102504.97;5104429;28;20066;-43
2022/05/27 02:43:41;;;;;;;2.72;1.00;;;;;;;25.28;37.03;102501.41;5101101;28;20048;-48
2022/05/27 02:46:48;;;;;;;2.10;0.70;;;;;;;25.32;37.09;102502.38;5104884;28;20492;-45
2022/05/27 02:49:35;;;;;;;2.22;0.80;;;;;;;25.32;36.98;102503.25;5104112;28;20024;-49
2022/05/27 02:52:23;;;;;;;2.90;0.90;;;;;;;25.32;36.73;102497.13;5100562;28;20489;-46
2022/05/27 02:55:24;;;;;;;2.20;0.95;;;;;;;25.35;36.89;102492.00;5104194;28;20058;-50
2022/05/27 02:57:59;;;;;;;3.08;1.10;;;;;;;25.32;36.99;102497.13;5076886;28;20042;-49
2022/05/27 03:00:30;;;;;;;2.05;0.90;;;;;;;25.29;37.02;102497.94;5104612;28;20380;-44
2022/05/27 03:02:59;;;;;;;5.40;1.00;;;;;;;25.29;37.04;102490.06;5104001;28;20035;-52
2022/05/27 03:05:48;;;;;;;2.75;0.90;;;;;;;25.31;37.00;102493.63;5104238;28;20551;-45
2022/05/27 03:08:23;;;;;;;3.03;1.00;;;;;;;25.28;36.76;102492.63;5101767;28;20374;-50
2022/05/27 03:11:12;;;;;;;3.88;1.17;;;;;;;25.27;36.76;102497.00;5104224;28;20139;-47
2022/05/27 03:14:08;;;;;;;3.92;1.00;;;;;;;25.29;37.16;102492.69;5094527;28;20130;-48
2022/05/27 03:16:50;;;;;;;2.30;0.80;;;;;;;25.29;37.15;102500.56;5101588;28;20101;-44
2022/05/27 03:19:56;;;;;;;3.53;1.27;;;;;;;25.27;36.82;102496.09;5102082;28;20032;-45
2022/05/27 03:22:44;;;;;;;2.38;0.85;;;;;;;25.10;37.24;102479.81;5103042;28;20051;-45
2022/05/27 03:25:21;;;;;;;1.85;0.70;;;;;;;25.20;37.20;102500.25;5103836;28;20030;-53
2022/05/27 03:28:01;;;;;;;2.00;0.80;;;;;;;25.22;36.96;102509.09;5102591;28;20473;-51
2022/05/27 03:30:34;;;;;;;3.40;0.85;;;;;;;25.22;37.13;102508.22;5104062;28;20463;-45
2022/05/27 03:33:09;;;;;;;2.30;0.90;;;;;;;25.20;37.35;102504.63;5102210;28;20036;-44
2022/05/27 03:35:44;;;;;;;4.60;0.90;;;;;;;25.21;37.20;102509.03;5102357;28;20020;-46
2022/05/27 03:38:12;;;;;;;;;;;;;;;25.27;36.86;102499.63;5104578;28;20042;-44
2022/05/27 03:41:00;;;;;;;3.53;0.80;;;;;;;25.08;37.18;102456.09;5102270;28;19915;-47
2022/05/27 03:43:30;;;;;;;2.15;0.88;;;;;;;25.26;36.77;102494.31;5103663;28;20027;-47
2022/05/27 03:46:01;;;;;;;1.55;0.80;;;;;;;25.19;37.08;102487.97;5104026;28;20035;-45
2022/05/27 03:48:31;;;;;;;3.72;1.02;;;;;;;25.18;37.20;102499.31;5103944;28;20568;-44
2022/05/27 03:51:03;;;;;;;3.65;1.10;;;;;;;25.12;37.25;102486.00;5103906;28;20118;-48
2022/05/27 03:54:14;;;;;;;2.03;0.85;;;;;;;25.20;37.01;102495.00;5102291;28;20044;-45
2022/05/27 03:56:19;;;;;;;2.97;0.75;;;;;;;25.18;37.25;102489.72;5103559;28;20035;-45
2022/05/27 03:58:47;;;;;;;2.20;0.70;;;;;;;25.17;36.89;102495.81;5104239;28;20039;-51
2022/05/27 04:01:16;;;;;;;3.30;0.77;;;;;;;24.93;37.30;102461.78;5103484;28;20051;-50
2022/05/27 04:03:44;;;;;;;1.83;0.70;;;;;;;25.09;37.42;102488.53;5103600;28;20032;-45
2022/05/27 04:06:13;;;;;;;2.05;0.80;;;;;;;25.16;36.86;102496.66;5103577;28;20038;-47
2022/05/27 04:08:43;;;;;;;1.45;0.60;;;;;;;25.15;37.25;102500.13;5103409;28;20031;-45
2022/05/27 04:11:11;;;;;;;2.58;0.68;;;;;;;25.23;37.10;102500.38;5103297;28;20553;-47
2022/05/27 04:13:40;;;;;;;3.08;0.70;;;;;;;25.15;37.05;102487.00;5103570;28;20031;-46
2022/05/27 04:16:08;;;;;;;1.08;0.43;;;;;;;25.16;37.07;102498.38;5103839;28;20480;-43
2022/05/27 04:18:37;;;;;;;2.10;0.70;;;;;;;25.14;37.26;102500.09;5103429;28;20039;-53
2022/05/27 04:21:06;;;;;;;2.67;0.73;;;;;;;25.17;36.94;102508.03;5103565;28;20031;-44
2022/05/27 04:23:34;;;;;;;1.92;0.70;;;;;;;25.18;37.19;102505.47;5103352;28;20028;-46
2022/05/27 04:26:03;;;;;;;2.42;0.80;;;;;;;25.17;37.16;102501.06;5103530;28;20543;-45
2022/05/27 04:28:31;;;;;;;2.63;0.82;;;;;;;25.00;37.11;102474.25;5101803;28;20031;-50
2022/05/27 04:31:00;;;;;;;2.03;0.75;;;;;;;25.00;37.27;102471.63;5103773;28;20087;-48
2022/05/27 04:33:29;;;;;;;1.95;0.82;;;;;;;25.13;37.03;102507.06;5103300;28;20035;-47
2022/05/27 04:35:58;;;;;;;3.60;0.80;;;;;;;25.19;37.15;102508.97;5103247;28;20032;-46
2022/05/27 04:38:27;;;;;;;1.20;0.52;;;;;;;25.16;36.90;102508.88;5103481;28;20024;-47
2022/05/27 04:40:56;;;;;;;2.03;0.70;;;;;;;25.17;37.04;102506.31;5103494;28;20028;-44
2022/05/27 04:43:24;;;;;;;1.55;0.65;;;;;;;25.10;36.93;102500.81;5103268;28;20042;-51
2022/05/27 04:45:53;;;;;;;1.77;0.57;;;;;;;25.21;36.64;102514.31;5103386;28;20027;-51
2022/05/27 04:48:22;;;;;;;2.25;0.70;;;;;;;25.22;36.84;102509.09;5106583;28;20076;-48
2022/05/27 04:50:50;;;;;;;2.47;0.77;;;;;;;25.16;37.04;102501.00;5107075;28;20036;-49
2022/05/27 04:53:19;;;;;;;2.33;0.70;;;;;;;25.13;37.13;102506.16;5106830;28;20038;-51
2022/05/27 04:55:48;;;;;;;2.22;0.57;;;;;;;25.13;37.15;102512.31;5106585;28;20477;-44
2022/05/27 04:58:16;;;;;;;2.60;0.60;;;;;;;25.13;37.31;102508.81;5106834;28;20037;-44
2022/05/27 05:00:47;;;;;;;1.80;0.70;;;;;;;25.20;36.82;102509.88;5106656;28;20038;-50
2022/05/27 05:03:16;;;;;;;2.85;0.73;;;;;;;25.12;37.06;102502.63;5106462;28;20474;-46
2022/05/27 05:05:45;;;;;;;2.42;0.70;;;;;;;25.15;37.06;102512.38;5106559;28;20031;-49
2022/05/27 05:08:40;;;;;;;0.85;0.40;;;;;;;25.10;37.20;102511.31;5106868;28;20089;-46
2022/05/27 05:11:08;;;;;;;1.88;0.50;;;;;;;25.12;37.40;102514.91;5106078;28;20048;-52
2022/05/27 05:13:37;;;;;;;1.45;0.40;;;;;;;25.12;37.23;102510.50;5105935;28;20156;-46
2022/05/27 05:16:06;;;;;;;2.60;0.77;;;;;;;25.21;36.92;102519.56;5106484;28;20031;-50
2022/05/27 05:18:35;;;;;;;2.35;0.73;;;;;;;25.20;37.03;102515.13;5106536;27;20063;-45
2022/05/27 05:21:03;;;;;;;1.50;0.75;;;;;;;25.10;36.88;102506.06;5106347;28;20032;-45
2022/05/27 05:23:32;;;;;;;1.95;0.65;;;;;;;25.16;36.88;102512.41;5106070;28;20028;-44
2022/05/27 05:26:00;;;;;;;2.30;0.40;;;;;;;25.22;37.14;102522.22;5106092;28;20110;-51
2022/05/27 05:28:29;;;;;;;2.28;0.70;;;;;;;25.24;36.93;102525.78;5106397;28;20036;-44
2022/05/27 05:30:57;;;;;;;2.20;0.90;;;;;;;25.18;37.07;102525.56;5106359;28;20036;-53
2022/05/27 05:33:26;;;;;;;1.65;0.50;;;;;;;25.12;37.08;102517.53;5106020;28;20031;-49
2022/05/27 05:35:54;;;;;;;2.83;0.77;;;;;;;25.21;36.79;102524.81;5105889;28;20032;-48
2022/05/27 05:38:23;;;;;;;2.33;0.52;;;;;;;25.16;37.16;102520.28;5106120;28;20466;-44
2022/05/27 05:40:51;;;;;;;1.67;0.60;;;;;;;25.18;37.36;102520.31;5088044;28;20142;-52
2022/05/27 05:43:20;;;;;;;2.28;0.77;;;;;;;25.21;36.82;102523.06;5087461;28;20416;-46
2022/05/27 05:45:48;;;;;;;1.90;0.60;;;;;;;25.15;37.04;102526.38;5105977;28;20088;-43
2022/05/27 05:48:17;;;;;;;1.73;0.60;;;;;;;25.10;37.16;102520.06;5105811;28;20034;-50
2022/05/27 05:50:46;;;;;;;3.83;0.80;;;;;;;25.12;37.34;102536.78;5105824;28;20457;-53
2022/05/27 05:53:14;;;;;;;3.80;0.82;;;;;;;25.12;37.07;102530.66;5105603;28;20120;-44
2022/05/27 05:55:43;;;;;;;3.80;0.68;;;;;;;25.13;37.02;102528.06;5105801;28;20427;-45
2022/05/27 05:58:12;;;;;;;2.42;0.73;;;;;;;25.13;37.06;102543.81;5105599;28;20028;-51
2022/05/27 06:00:40;;;;;;;5.07;0.82;;;;;;;25.12;37.33;102541.16;5104426;28;20767;-44
2022/05/27 06:03:08;;;;;;;2.38;0.70;;;;;;;25.20;37.06;102544.03;5105340;28;20081;-44
2022/05/27 06:05:38;;;;;;;4.20;0.85;;;;;;;25.10;37.18;102532.31;5105722;27;20079;-44
2022/05/27 06:08:06;;;;;;;4.07;0.50;;;;;;;25.18;36.98;102546.59;5105541;28;20028;-43
2022/05/27 06:10:34;;;;;;;2.08;0.75;;;;;;;25.13;37.42;102541.19;5105131;28;20140;-45
2022/05/27 06:13:03;;;;;;;4.45;0.82;;;;;;;25.27;36.97;102553.88;5105248;28;20032;-44
2022/05/27 06:15:30;;;;;;;4.75;0.77;;;;;;;25.33;37.03;102549.72;5104961;28;20298;-53
2022/05/27 06:17:59;;;;;;;1.23;0.52;;;;;;;25.25;37.17;102548.59;5105555;28;20043;-45
2022/05/27 06:20:27;;;;;;;1.90;0.75;;;;;;;25.24;36.85;102549.44;5105305;28;20114;-49
2022/05/27 06:22:54;;;;;;;3.45;0.77;;;;;;;25.21;36.67;102533.56;5104731;28;20023;-44
2022/05/27 06:25:23;;;;;;;3.88;0.55;;;;;;;25.29;37.06;102553.09;5105074;28;20023;-48
2022/05/27 06:27:50;;;;;;;1.95;0.70;;;;;;;25.27;37.01;102556.50;5105297;28;20031;-44
2022/05/27 06:35:54;;;;;;;2.15;0.60;;;;;;;25.34;36.75;102550.63;5104581;28;20035;-53
2022/05/27 06:38:23;;;;;;;4.18;0.60;;;;;;;25.32;36.72;102545.28;5104799;28;20020;-46
2022/05/27 06:40:51;;;;;;;1.85;0.52;;;;;;;25.33;37.08;102543.56;5104895;28;20084;-45
2022/05/27 06:43:19;;;;;;;1.23;0.50;;;;;;;25.29;37.07;102545.22;5104545;28;20074;-46
2022/05/27 06:45:48;;;;;;;3.90;0.65;;;;;;;25.37;36.82;102552.44;5105002;28;20054;-44
2022/05/27 06:48:17;;;;;;;2.30;0.60;;;;;;;25.39;36.79;102561.28;5104971;28;20027;-50
2022/05/27 06:50:45;;;;;;;2.47;0.70;;;;;;;25.34;36.92;102559.38;5104816;28;20084;-43
2022/05/27 06:53:13;;;;;;;2.42;0.57;;;;;;;25.34;37.01;102554.13;5104466;28;20027;-44
2022/05/27 06:55:42;;;;;;;0.88;0.30;;;;;;;25.38;37.39;102556.84;5104419;28;20443;-43
2022/05/27 06:58:10;;;;;;;2.30;0.50;;;;;;;25.45;36.92;102556.25;5103518;28;20031;-45
2022/05/27 07:00:39;;;;;;;3.78;0.70;;;;;;;25.50;36.61;102565.16;5104443;27;20143;-46
2022/05/27 07:03:07;;;;;;;1.70;0.70;;;;;;;25.46;36.69;102563.31;5104451;28;20027;-45
2022/05/27 07:05:35;;;;;;;2.03;0.60;;;;;;;25.47;36.91;102560.72;5104208;28;20032;-44
2022/05/27 07:08:04;;;;;;;3.75;0.57;;;;;;;25.48;36.95;102566.88;5104081;28;20032;-44
2022/05/27 07:10:33;;;;;;;3.55;0.90;;;;;;;25.48;36.57;102562.50;5103241;28;20580;-47
2022/05/27 07:13:02;;;;;;;2.63;0.63;;;;;;;25.53;36.58;102569.63;5103945;28;20122;-46
2022/05/27 07:15:31;;;;;;;1.55;0.30;;;;;;;25.58;36.64;102574.19;5104595;28;20110;-44
2022/05/27 07:17:59;;;;;;;5.30;0.80;;;;;;;25.54;36.96;102567.03;5104459;28;20019;-45
2022/05/27 07:20:28;;;;;;;1.45;0.57;;;;;;;25.55;36.62;102579.34;5104309;28;20039;-52
2022/05/27 07:22:56;;;;;;;1.70;0.52;;;;;;;25.51;36.83;102577.44;5103328;28;20798;-48
2022/05/27 07:25:25;;;;;;;1.45;0.60;;;;;;;25.49;36.74;102568.63;5103062;28;20383;-52
2022/05/27 07:27:54;;;;;;;2.60;0.43;;;;;;;25.61;36.88;102589.16;5103883;28;20405;-52
2022/05/27 07:30:22;;;;;;;1.67;0.70;;;;;;;25.56;36.76;102590.75;5103907;28;20015;-45
2022/05/27 07:32:50;;;;;;;1.25;0.50;;;;;;;25.54;36.96;102584.56;5104058;28;20526;-50
2022/05/27 07:35:18;;;;;;;2.15;0.65;;;;;;;25.55;36.51;102587.22;5104051;28;20032;-45
2022/05/27 07:37:47;;;;;;;1.15;0.52;;;;;;;25.48;36.82;102583.50;5103762;28;20028;-47
2022/05/27 07:40:15;;;;;;;3.67;0.75;;;;;;;25.57;36.88;102600.41;5103849;28;20042;-45
2022/05/27 07:42:44;;;;;;;3.03;0.60;;;;;;;25.58;36.87;102602.19;5103313;28;20038;-45
2022/05/27 07:45:14;;;;;;;2.28;0.55;;;;;;;25.55;36.67;102597.72;5103552;28;20031;-44
2022/05/27 07:47:42;;;;;;;1.83;0.50;;;;;;;25.59;36.53;102601.34;5103939;28;20031;-45
2022/05/27 07:50:13;;;;;;;2.90;0.50;;;;;;;25.59;36.60;102596.09;5103703;28;20418;-49
2022/05/27 07:52:42;;;;;;;2.17;0.70;;;;;;;25.61;37.18;102602.28;5103319;28;20035;-44
2022/05/27 07:55:11;;;;;;;5.68;0.90;;;;;;;25.61;37.12;102605.81;5103513;28;20096;-52
2022/05/27 07:57:50;;;;;;;2.28;0.70;;;;;;;25.66;36.89;102603.34;5103357;28;20275;-48
2022/05/27 08:00:23;;;;;;;1.70;0.57;;;;;;;25.63;37.00;102598.88;5103679;28;20073;-44
2022/05/27 08:02:51;;;;;;;2.10;0.68;;;;;;;25.61;37.04;102603.19;5103655;28;20074;-45
2022/05/27 08:05:23;;;;;;;1.10;0.60;;;;;;;25.63;36.56;102597.97;5103451;28;20032;-44
2022/05/27 08:07:52;;;;;;;1.83;0.68;;;;;;;25.67;36.81;102601.59;5103282;28;20028;-43
2022/05/27 08:10:23;;;;;;;1.08;0.43;;;;;;;25.66;36.93;102610.31;5101816;28;20052;-44
2022/05/27 08:12:52;;;;;;;6.18;0.82;;;;;;;25.62;36.70;102596.19;5101734;28;20447;-48
2022/05/27 08:15:21;;;;;;;1.17;0.35;;;;;;;25.70;36.76;102602.59;5103668;28;20089;-43
2022/05/27 08:17:49;;;;;;;3.22;0.50;;;;;;;25.68;36.56;102598.13;5102058;28;20305;-49
2022/05/27 08:20:21;;;;;;;1.00;0.47;;;;;;;25.65;36.45;102596.28;5104207;28;20077;-49
2022/05/27 08:22:53;;;;;;;1.83;0.60;;;;;;;25.71;36.53;102598.22;5105681;28;20114;-43
2022/05/27 08:25:22;;;;;;;2.63;0.50;;;;;;;25.69;36.58;102592.94;5099001;28;20027;-46
2022/05/27 08:27:51;;;;;;;2.85;0.77;;;;;;;25.73;36.63;102594.78;5088948;28;20092;-46
2022/05/27 08:30:23;;;;;;;4.50;1.05;;;;;;;25.76;36.74;102594.00;5107207;28;20086;-44
2022/05/27 08:32:51;;;;;;;1.92;0.57;;;;;;;25.70;36.85;102585.91;5106998;28;20477;-43
2022/05/27 08:38:11;;;;;;;1.98;0.52;;;;;;;25.75;36.49;102579.09;5095212;28;20046;-45
2022/05/27 08:41:07;;;;;;;0.93;0.40;;;;;;;25.75;36.73;102584.34;5106796;28;20462;-43
2022/05/27 08:43:55;;;;;;;1.65;0.50;;;;;;;25.79;36.42;102592.38;5103183;28;20047;-44
2022/05/27 08:47:01;;;;;;;3.80;0.50;;;;;;;25.78;36.44;102587.06;5107159;28;20024;-45
2022/05/27 08:49:35;;;;;;;1.42;0.50;;;;;;;25.79;36.47;102587.09;5107115;28;20024;-44
2022/05/27 08:52:10;;;;;;;1.23;0.45;;;;;;;25.81;36.84;102588.88;5105188;28;20610;-45
2022/05/27 08:54:45;;;;;;;1.13;0.30;;;;;;;25.76;36.60;102579.13;5106627;28;20042;-44
2022/05/27 09:00:05;;;;;;;1.48;0.40;;;;;;;25.76;37.02;102594.88;5102162;28;20147;-43
2022/05/27 09:02:39;;;;;;;2.83;0.40;;;;;;;25.72;37.00;102587.78;5104970;28;20123;-43
2022/05/27 09:05:18;;;;;;;4.03;0.50;;;;;;;25.73;36.76;102593.91;5088453;28;20077;-44
2022/05/27 09:07:56;;;;;;;4.55;0.63;;;;;;;25.72;36.86;102582.53;5105331;28;20057;-44
2022/05/27 09:10:51;;;;;;;3.50;0.60;;;;;;;25.68;37.20;102585.88;5105300;28;20047;-44
2022/05/27 09:13:28;;;;;;;1.15;0.40;;;;;;;25.65;37.23;102585.78;5103459;28;20501;-50
2022/05/27 09:16:17;;;;;;;1.83;0.60;;;;;;;25.66;36.85;102586.66;5095044;28;20483;-48
2022/05/27 09:19:07;;;;;;;1.83;0.50;;;;;;;25.67;37.02;102583.19;5101846;28;20062;-45
2022/05/27 09:21:55;;;;;;;2.75;0.57;;;;;;;25.68;37.12;102587.59;5102954;28;20821;-43
2022/05/27 09:24:44;;;;;;;3.50;0.40;;;;;;;25.68;36.98;102585.88;5096575;28;20043;-47
2022/05/27 09:27:36;;;;;;;1.10;0.47;;;;;;;25.68;37.35;102580.63;5080728;28;20024;-43
2022/05/27 09:30:08;;;;;;;3.25;0.55;;;;;;;25.72;37.07;102594.75;5104850;28;20031;-44
2022/05/27 09:32:37;;;;;;;3.45;0.43;;;;;;;25.70;36.94;102588.53;5087203;28;20039;-43
2022/05/27 09:35:12;;;;;;;1.85;0.40;;;;;;;25.69;36.75;102577.16;5105959;28;20270;-43
2022/05/27 09:37:44;;;;;;;1.50;0.47;;;;;;;25.73;37.01;102589.53;5104362;28;20473;-45
2022/05/27 09:40:36;;;;;;;1.70;0.68;;;;;;;25.72;36.97;102586.88;5080278;28;20058;-44
2022/05/27 09:43:11;;;;;;;1.45;0.52;;;;;;;25.74;36.61;102590.44;5105997;28;20024;-44
2022/05/27 09:45:40;;;;;;;3.72;0.75;;;;;;;25.69;37.08;102581.50;5087775;28;20031;-44
2022/05/27 09:48:10;;;;;;;1.50;0.60;;;;;;;25.67;37.03;102578.84;5104288;28;20050;-44
2022/05/27 09:50:42;;;;;;;1.70;0.32;;;;;;;25.66;37.20;102582.31;5105813;28;20440;-44
2022/05/27 09:53:19;;;;;;;1.80;0.75;;;;;;;25.72;37.32;102579.88;5105592;28;20041;-43
2022/05/27 09:55:57;;;;;;;0.88;0.40;;;;;;;25.71;37.16;102579.81;5105824;28;20089;-47
2022/05/27 09:58:28;;;;;;;1.75;0.40;;;;;;;25.66;36.98;102571.81;5105833;28;20027;-47
2022/05/27 10:00:57;;;;;;;1.50;0.50;;;;;;;25.70;37.32;102580.66;5093584;28;20028;-50
2022/05/27 10:03:36;;;;;;;2.00;0.50;;;;;;;25.76;37.10;102580.88;5094690;28;20082;-44
2022/05/27 10:06:19;;;;;;;1.85;0.60;;;;;;;25.79;36.58;102579.22;5103790;28;20092;-44
2022/05/27 10:08:50;;;;;;;3.22;0.85;;;;;;;25.81;37.16;102570.50;5105225;28;20442;-48
2022/05/27 10:11:26;;;;;;;1.65;0.70;;;;;;;25.79;37.03;102575.72;5103612;28;20092;-46
2022/05/27 10:14:16;;;;;;;2.53;0.43;;;;;;;25.82;37.51;102574.91;5105144;28;20028;-44
2022/05/27 10:17:00;;;;;;;2.47;0.40;;;;;;;25.80;37.03;102566.97;5104123;28;20054;-44
2022/05/27 10:19:29;;;;;;;1.80;0.43;;;;;;;25.78;37.08;102571.28;5104265;28;20485;-43
2022/05/27 10:22:01;;;;;;;2.22;0.63;;;;;;;25.82;37.35;102569.66;5104920;28;20035;-46
2022/05/27 10:24:33;;;;;;;1.10;0.68;;;;;;;25.82;36.97;102577.53;5105457;28;20118;-49
2022/05/27 10:27:05;;;;;;;1.40;0.40;;;;;;;25.88;36.75;102573.34;5103934;28;20050;-44
2022/05/27 10:29:35;;;;;;;1.92;0.50;;;;;;;25.80;36.94;102556.47;5103559;28;20032;-44
2022/05/27 10:32:03;;;;;;;1.42;0.50;;;;;;;25.88;36.69;102562.84;5103565;28;20027;-45
2022/05/27 10:34:51;;;;;;;5.40;0.30;;;;;;;25.91;36.94;102562.94;5086947;28;20059;-44
2022/05/27 10:37:39;;;;;;;5.05;0.70;;;;;;;25.88;36.86;102562.84;5105067;28;20031;-44
2022/05/27 10:40:15;;;;;;;2.55;0.40;;;;;;;25.94;36.53;102560.41;5104568;28;20044;-45
2022/05/27 10:43:11;;;;;;;2.75;0.63;;;;;;;25.97;36.63;102556.09;5105150;28;20032;-44
2022/05/27 10:45:43;;;;;;;1.15;0.55;;;;;;;25.90;36.61;102545.38;5102955;28;20036;-43
2022/05/27 10:48:24;;;;;;;1.40;0.40;;;;;;;26.00;36.35;102559.69;5103280;28;20032;-44
2022/05/27 10:51:17;;;;;;;0.73;0.40;;;;;;;25.98;36.76;102550.84;5105374;28;20033;-49
2022/05/27 10:54:12;;;;;;;1.55;0.55;;;;;;;26.00;36.76;102548.25;5100976;28;20254;-43
2022/05/27 10:56:42;;;;;;;1.85;0.40;;;;;;;26.01;36.41;102542.16;5103547;28;20495;-44
2022/05/27 11:02:28;;;;;;;0.93;0.32;;;;;;;26.04;36.76;102544.88;5103806;28;20100;-44
2022/05/27 11:05:15;;;;;;;0.57;0.30;;;;;;;26.08;36.54;102549.38;5104588;28;20481;-47
2022/05/27 11:07:46;;;;;;;0.13;0.13;;;;;;;26.08;36.63;102544.13;5100628;28;20505;-45
2022/05/27 11:10:52;;;;;;;4.07;0.52;;;;;;;26.07;36.47;102531.81;5104656;28;20629;-44
2022/05/27 11:17:01;;;;;;;1.00;0.32;;;;;;;26.07;36.41;102521.31;5095880;28;20075;-44
2022/05/27 11:20:07;;;;;;;1.30;0.30;;;;;;;26.15;36.49;102539.97;5100957;28;20104;-46
2022/05/27 11:22:55;;;;;;;1.80;0.35;;;;;;;26.16;36.51;102532.09;5102086;28;20523;-44
2022/05/27 11:25:50;;;;;;;0.80;0.20;;;;;;;26.16;36.35;102534.75;5100922;28;20044;-50
2022/05/27 11:28:41;;;;;;;1.08;0.40;;;;;;;26.23;36.55;102530.53;5100404;28;20035;-44
2022/05/27 11:31:29;;;;;;;1.25;0.60;;;;;;;26.23;36.28;102541.97;5096622;28;20035;-44
2022/05/27 11:34:27;;;;;;;1.15;0.30;;;;;;;26.19;36.55;102531.31;5101330;28;20119;-46
2022/05/27 11:36:55;;;;;;;0.57;0.20;;;;;;;26.22;36.79;102541.94;5101593;28;20036;-52
2022/05/27 11:39:47;;;;;;;0.65;0.30;;;;;;;26.23;36.42;102530.53;5103753;28;20408;-45
2022/05/27 11:42:19;;;;;;;2.67;0.20;;;;;;;26.29;36.36;102533.34;5100532;28;20090;-48
2022/05/27 11:45:26;;;;;;;1.30;0.28;;;;;;;26.28;36.51;102528.94;5104236;28;20030;-44
2022/05/27 11:48:07;;;;;;;0.70;0.25;;;;;;;26.30;36.32;102523.75;5101299;28;20027;-47
2022/05/27 11:50:58;;;;;;;0.65;0.20;;;;;;;26.28;36.43;102520.16;5104102;28;20066;-50
2022/05/27 11:53:34;;;;;;;1.38;0.75;;;;;;;26.33;36.43;102529.06;5096986;28;20100;-50
2022/05/27 11:56:05;;;;;;;1.45;0.30;;;;;;;26.31;36.51;102529.03;5103783;28;20568;-44
2022/05/27 11:58:47;;;;;;;0.50;0.20;;;;;;;26.27;36.41;102511.38;5107018;28;20145;-45
2022/05/27 12:01:21;;;;;;;0.55;0.30;;;;;;;26.35;36.71;102525.66;5107895;28;20028;-44
2022/05/27 12:04:22;;;;;;;0.57;0.13;;;;;;;26.27;36.52;102515.75;5106299;28;20035;-44
2022/05/27 12:07:28;;;;;;;3.45;0.20;;;;;;;26.13;36.88;102487.34;5104354;28;20039;-47
2022/05/27 12:10:15;;;;;;;0.20;0.13;;;;;;;26.31;37.01;102522.91;5107209;28;20126;-43
2022/05/27 12:13:07;;;;;;;0.98;0.25;;;;;;;26.30;37.37;102515.84;5104030;28;20078;-51
2022/05/27 12:15:40;;;;;;;1.10;0.38;;;;;;;26.26;37.05;102511.34;5104963;28;20130;-44
2022/05/27 12:18:18;;;;;;;2.13;0.40;;;;;;;26.29;37.00;102508.81;5106615;28;20473;-46